createdAt,value
2022-10-06T00:01:52.405Z,42.06
2022-10-06T00:06:54.358Z,42.13
2022-10-06T00:11:56.311Z,42.04
2022-10-06T00:16:58.227Z,42.12
2022-10-06T00:22:00.234Z,41.98
2022-10-06T00:27:02.289Z,42.17
2022-10-06T00:32:04.279Z,41.98
2022-10-06T00:37:06.231Z,42.01
2022-10-06T00:42:27.835Z,41.80
2022-10-06T00:47:33.392Z,42.03
2022-10-06T00:52:35.912Z,42.17
2022-10-06T00:57:39.683Z,41.67
2022-10-06T01:02:47.910Z,41.82
2022-10-06T01:07:51.375Z,42.01
2022-10-06T01:12:53.450Z,41.97
2022-10-06T01:18:04.077Z,42.08
2022-10-06T01:23:07.164Z,41.95
2022-10-06T01:28:11.335Z,42.12
2022-10-06T01:33:13.383Z,41.94
2022-10-06T01:38:16.755Z,41.89
2022-10-06T01:43:20.955Z,41.99
2022-10-06T01:48:24.111Z,41.83
2022-10-06T01:53:26.878Z,41.81
2022-10-06T01:58:29.139Z,41.95
2022-10-06T02:03:31.377Z,41.88
2022-10-06T02:08:33.857Z,42.05
2022-10-06T02:13:38.497Z,42.15
2022-10-06T02:18:41.008Z,41.88
2022-10-06T02:23:42.964Z,42.04
2022-10-06T02:28:47.004Z,41.94
2022-10-06T02:33:53.506Z,42.01
2022-10-06T02:38:57.698Z,41.85
2022-10-06T02:44:00.115Z,41.92
2022-10-06T02:49:02.214Z,41.94
2022-10-06T02:54:04.361Z,42.06
2022-10-06T02:59:06.277Z,42.16
2022-10-06T03:04:12.248Z,42.05
2022-10-06T03:09:16.446Z,42.05
2022-10-06T03:14:21.817Z,41.81
2022-10-06T03:19:25.722Z,42.03
2022-10-06T03:24:28.734Z,42.04
2022-10-06T03:29:32.910Z,42.14
2022-10-06T03:34:36.083Z,41.91
2022-10-06T03:39:40.776Z,42.09
2022-10-06T03:44:43.160Z,42.06
2022-10-06T03:49:45.235Z,42.05
2022-10-06T03:54:49.241Z,41.94
2022-10-06T03:59:51.641Z,42.07
2022-10-06T04:04:53.635Z,42.11
2022-10-06T04:09:55.595Z,42.19
2022-10-06T04:15:00.069Z,42.08
2022-10-06T04:20:03.443Z,42.00
2022-10-06T04:25:06.155Z,41.84
2022-10-06T04:30:09.467Z,41.94
2022-10-06T04:35:13.330Z,42.03
2022-10-06T04:40:16.144Z,41.89
2022-10-06T04:45:18.546Z,41.89
2022-10-06T04:50:21.203Z,41.99
2022-10-06T04:55:41.534Z,41.87
2022-10-06T05:00:43.853Z,41.94
2022-10-06T05:05:46.185Z,42.00
2022-10-06T05:10:48.247Z,41.78
2022-10-06T05:16:00.840Z,41.88
2022-10-06T05:21:13.667Z,41.97
2022-10-06T05:26:21.955Z,42.07
2022-10-06T05:31:29.867Z,42.06
2022-10-06T05:36:34.249Z,41.85
2022-10-06T05:41:38.283Z,41.90
2022-10-06T05:46:43.506Z,41.91
2022-10-06T05:51:45.706Z,42.01
2022-10-06T05:56:58.763Z,41.80
2022-10-06T06:02:01.085Z,41.90
2022-10-06T06:07:09.751Z,41.83
2022-10-06T06:12:14.599Z,41.97
2022-10-06T06:17:32.252Z,41.87
2022-10-06T06:22:36.085Z,41.93
2022-10-06T06:27:40.850Z,41.88
2022-10-06T06:32:43.260Z,41.70
2022-10-06T06:37:46.709Z,41.73
2022-10-06T06:42:53.638Z,41.94
2022-10-06T06:48:37.937Z,41.97
2022-10-06T06:53:41.134Z,41.90
2022-10-06T06:58:47.606Z,41.84
2022-10-06T07:03:59.226Z,41.64
2022-10-06T07:09:06.643Z,41.66
2022-10-06T07:14:12.741Z,41.81
2022-10-06T07:19:38.951Z,41.61
2022-10-06T07:25:00.141Z,41.81
2022-10-06T07:30:03.296Z,41.46
2022-10-06T07:35:07.335Z,41.81
2022-10-06T07:40:11.762Z,41.71
2022-10-06T07:45:34.186Z,41.68
2022-10-06T07:50:39.690Z,41.71
2022-10-06T07:55:46.490Z,41.69
2022-10-06T08:01:08.782Z,41.93
2022-10-06T08:06:18.951Z,41.83
2022-10-06T08:11:21.814Z,41.86
2022-10-06T08:16:30.352Z,41.97
2022-10-06T08:21:36.629Z,42.09
2022-10-06T08:26:38.928Z,42.04
2022-10-06T08:31:41.165Z,42.05
2022-10-06T08:37:02.178Z,42.29
2022-10-06T08:42:09.355Z,42.20
2022-10-06T08:47:20.540Z,42.12
2022-10-06T08:52:46.938Z,42.19
2022-10-06T08:58:02.007Z,42.02
2022-10-06T09:03:04.838Z,42.28
2022-10-06T09:08:31.374Z,42.16
2022-10-06T09:13:53.385Z,42.26
2022-10-06T09:19:10.494Z,42.38
2022-10-06T09:24:35.139Z,42.34
2022-10-06T09:29:37.163Z,42.40
2022-10-06T09:34:44.825Z,42.63
2022-10-06T09:39:50.475Z,42.57
2022-10-06T09:44:58.044Z,42.69
2022-10-06T09:50:23.155Z,42.71
2022-10-06T09:55:41.946Z,42.90
2022-10-06T10:00:52.678Z,42.68
2022-10-06T10:05:55.391Z,42.88
2022-10-06T10:11:40.667Z,42.82
2022-10-06T10:16:43.385Z,42.71
2022-10-06T10:21:46.117Z,42.79
2022-10-06T10:26:57.218Z,43.05
2022-10-06T10:32:19.654Z,42.83
2022-10-06T10:37:37.684Z,42.85
2022-10-06T10:42:51.627Z,42.84
2022-10-06T10:47:55.368Z,42.93
2022-10-06T10:53:22.660Z,43.01
2022-10-06T10:58:34.320Z,42.95
2022-10-06T11:03:36.446Z,42.98
2022-10-06T11:08:50.493Z,43.21
2022-10-06T11:13:54.980Z,43.29
2022-10-06T11:19:18.306Z,43.26
2022-10-06T11:24:33.136Z,43.29
2022-10-06T11:29:59.685Z,43.30
2022-10-06T11:35:02.871Z,43.41
2022-10-06T11:40:42.006Z,43.33
2022-10-06T11:46:00.100Z,43.28
2022-10-06T11:51:17.559Z,43.32
2022-10-06T11:56:19.519Z,43.27
2022-10-06T12:01:39.583Z,43.21
2022-10-06T12:06:47.608Z,43.22
2022-10-06T12:11:51.242Z,43.22
2022-10-06T12:17:12.586Z,43.38
2022-10-06T12:22:35.457Z,43.22
2022-10-06T12:27:43.466Z,43.20
2022-10-06T12:32:48.366Z,43.32
2022-10-06T12:37:54.587Z,43.10
2022-10-06T12:43:14.688Z,43.33
2022-10-06T12:48:35.223Z,43.36
2022-10-06T12:53:56.558Z,43.23
2022-10-06T12:58:58.887Z,43.24
2022-10-06T13:04:00.926Z,43.33
2022-10-06T13:09:23.156Z,43.25
2022-10-06T13:14:25.319Z,43.42
2022-10-06T13:19:28.668Z,43.28
2022-10-06T13:24:30.779Z,43.43
2022-10-06T13:29:32.835Z,43.37
2022-10-06T13:34:43.345Z,43.59
2022-10-06T13:39:45.487Z,43.41
2022-10-06T13:44:48.062Z,43.42
2022-10-06T13:50:06.500Z,43.46
2022-10-06T13:55:26.704Z,43.63
2022-10-06T14:00:28.737Z,43.60
2022-10-06T14:05:40.801Z,43.71
2022-10-06T14:10:56.011Z,43.60
2022-10-06T14:16:03.820Z,43.51
2022-10-06T14:21:39.706Z,43.67
2022-10-06T14:26:43.554Z,43.72
2022-10-06T14:31:45.831Z,43.74
2022-10-06T14:36:53.688Z,43.39
2022-10-06T14:41:55.611Z,43.45
2022-10-06T14:46:58.031Z,43.30
2022-10-06T14:52:00.198Z,43.26
2022-10-06T14:57:02.280Z,43.47
2022-10-06T15:02:04.262Z,43.38
2022-10-06T15:07:24.868Z,43.66
2022-10-06T15:12:29.458Z,43.32
2022-10-06T15:17:35.454Z,43.25
2022-10-06T15:22:37.446Z,43.21
2022-10-06T15:27:58.203Z,43.28
2022-10-06T15:33:03.051Z,43.15
2022-10-06T15:38:04.998Z,43.19
2022-10-06T15:43:07.058Z,43.13
2022-10-06T15:48:09.611Z,42.89
2022-10-06T15:53:11.539Z,43.10
2022-10-06T15:58:13.503Z,42.92
2022-10-06T16:03:38.600Z,43.01
2022-10-06T16:08:42.664Z,43.00
2022-10-06T16:13:44.741Z,42.92
2022-10-06T16:18:46.711Z,43.08
2022-10-06T16:23:52.341Z,43.07
2022-10-06T16:28:55.059Z,42.95
2022-10-06T16:33:57.183Z,43.07
2022-10-06T16:38:59.255Z,42.86
2022-10-06T16:44:01.372Z,43.04
2022-10-06T16:49:04.094Z,42.99
2022-10-06T16:54:08.444Z,42.84
2022-10-06T16:59:18.396Z,42.68
2022-10-06T17:04:22.746Z,43.13
2022-10-06T17:09:26.713Z,42.92
2022-10-06T17:14:30.783Z,43.11
2022-10-06T17:19:34.127Z,43.15
2022-10-06T17:24:36.135Z,43.13
2022-10-06T17:29:38.125Z,43.07
2022-10-06T17:34:40.845Z,42.91
2022-10-06T17:39:47.087Z,42.83
2022-10-06T17:44:49.170Z,42.94
2022-10-06T17:49:51.083Z,43.18
2022-10-06T17:54:54.520Z,43.15
2022-10-06T17:59:59.439Z,43.13
2022-10-06T18:05:01.361Z,43.05
2022-10-06T18:10:22.315Z,43.01
2022-10-06T18:15:24.244Z,43.04
2022-10-06T18:20:30.103Z,42.94
2022-10-06T18:25:32.107Z,43.04
2022-10-06T18:30:34.504Z,42.96
2022-10-06T18:41:02.102Z,42.88
2022-10-06T18:46:24.735Z,42.93
2022-10-06T18:51:36.155Z,42.87
2022-10-06T18:56:38.580Z,42.74
2022-10-06T19:01:43.397Z,43.03
2022-10-06T19:06:49.706Z,43.13
2022-10-06T19:11:56.042Z,42.92
2022-10-06T19:17:00.821Z,42.99
2022-10-06T19:22:04.618Z,43.11
2022-10-06T19:27:12.351Z,43.20
2022-10-06T19:32:18.267Z,43.19
2022-10-06T19:37:20.247Z,43.09
2022-10-06T19:42:40.896Z,43.11
2022-10-06T19:47:43.487Z,43.07
2022-10-06T19:52:45.733Z,43.13
2022-10-06T19:57:47.727Z,43.00
2022-10-06T20:02:49.780Z,43.09
2022-10-06T20:07:52.363Z,43.07
2022-10-06T20:12:54.282Z,43.27
2022-10-06T20:17:56.203Z,42.70
2022-10-06T20:22:58.080Z,43.08
2022-10-06T20:28:00.869Z,43.22
2022-10-06T20:33:04.978Z,43.34
2022-10-06T20:38:09.046Z,43.11
2022-10-06T20:43:11.003Z,43.34
2022-10-06T20:48:14.544Z,43.37
2022-10-06T20:53:17.401Z,43.27
2022-10-06T20:58:19.358Z,43.31
2022-10-06T21:03:21.304Z,43.02
2022-10-06T21:08:23.821Z,43.26
2022-10-06T21:13:27.005Z,43.36
2022-10-06T21:18:28.972Z,43.39
2022-10-06T21:23:39.209Z,43.34
2022-10-06T21:28:42.084Z,43.39
2022-10-06T21:33:45.310Z,43.39
2022-10-06T21:38:57.845Z,43.26
2022-10-06T21:44:06.991Z,43.26
2022-10-06T21:49:14.075Z,43.18
2022-10-06T21:54:16.744Z,43.32
2022-10-06T21:59:18.768Z,43.08
2022-10-06T22:04:20.880Z,43.06
2022-10-06T22:09:23.022Z,42.94
2022-10-06T22:14:25.111Z,43.10
2022-10-06T22:19:27.081Z,43.36
2022-10-06T22:24:29.237Z,43.33
2022-10-06T22:29:31.209Z,43.22
2022-10-06T22:34:33.155Z,43.03
2022-10-06T22:39:35.104Z,43.16
2022-10-06T22:44:37.057Z,43.17
2022-10-06T22:49:39.029Z,43.32
2022-10-06T22:54:40.974Z,43.13
2022-10-06T22:59:44.354Z,43.20
2022-10-06T23:04:46.362Z,43.19
2022-10-06T23:09:48.539Z,43.11
2022-10-06T23:14:50.478Z,43.19
2022-10-06T23:19:52.311Z,43.07
2022-10-06T23:24:54.331Z,43.37
2022-10-06T23:29:56.289Z,42.93
2022-10-06T23:34:58.459Z,42.94
2022-10-06T23:40:00.373Z,43.38
2022-10-06T23:45:02.340Z,43.22
2022-10-06T23:50:04.796Z,43.36
2022-10-06T23:55:07.485Z,43.30
